Time;durP1;ratioP1;P1;durP2;ratioP2;P2;SDS_P1;SDS_P2;PMS_P1;PMS_P2;Temp;Humidity;BMP_temperature;BMP_pressure;BME280_temperature;BME280_humidity;BME280_pressure;Samples;Min_cycle;Max_cycle;Signal;HPM_P1;HPM_P2
2022/05/30 00:01:20;;;;;;;2.83;1.80;;;;;;;5.20;100.00;98203.75;5010460;28;20053;-67
2022/05/30 00:03:45;;;;;;;6.20;2.00;;;;;;;5.23;100.00;98206.06;5013130;28;20476;-68
2022/05/30 00:06:14;;;;;;;5.47;1.90;;;;;;;5.14;100.00;98209.84;5010693;28;20045;-68
2022/05/30 00:08:40;;;;;;;6.57;1.90;;;;;;;4.98;100.00;98182.19;5007328;28;20116;-68
2022/05/30 00:11:09;;;;;;;4.13;2.10;;;;;;;5.03;100.00;98195.88;5004917;28;20359;-68
2022/05/30 00:13:35;;;;;;;3.78;2.25;;;;;;;5.01;100.00;98197.09;5012216;28;20038;-68
2022/05/30 00:16:06;;;;;;;3.10;1.95;;;;;;;5.00;100.00;98196.25;5006280;28;20045;-67
2022/05/30 00:18:31;;;;;;;2.17;1.60;;;;;;;5.00;100.00;98190.03;5003724;28;20032;-68
2022/05/30 00:20:57;;;;;;;5.45;1.92;;;;;;;4.95;100.00;98198.66;5012439;28;20026;-68
2022/05/30 00:23:22;;;;;;;3.80;1.83;;;;;;;5.02;100.00;98198.72;5009138;28;20104;-68
2022/05/30 00:25:47;;;;;;;6.22;1.80;;;;;;;4.97;100.00;98175.16;5007960;28;20097;-67
2022/05/30 00:28:16;;;;;;;4.53;1.90;;;;;;;4.96;100.00;98176.19;5013153;28;20103;-68
2022/05/30 00:30:41;;;;;;;3.73;1.73;;;;;;;4.97;100.00;98195.75;5012054;28;20112;-68
2022/05/30 00:33:06;;;;;;;2.78;1.70;;;;;;;4.97;100.00;98191.22;5012193;28;20455;-68
2022/05/30 00:35:32;;;;;;;5.78;1.77;;;;;;;4.85;100.00;98190.03;5010493;28;20180;-67
2022/05/30 00:37:57;;;;;;;4.35;1.95;;;;;;;4.89;100.00;98182.44;5008364;28;20355;-67
2022/05/30 00:40:22;;;;;;;3.78;2.00;;;;;;;4.94;100.00;98188.09;5008659;28;20025;-67
2022/05/30 00:42:48;;;;;;;3.83;1.77;;;;;;;4.78;100.00;98186.41;5009606;28;20026;-67
2022/05/30 00:45:13;;;;;;;3.78;1.50;;;;;;;4.68;100.00;98183.16;5007253;28;20030;-68
2022/05/30 00:47:38;;;;;;;3.92;2.10;;;;;;;4.56;100.00;98180.91;5011212;28;20022;-68
2022/05/30 00:50:05;;;;;;;4.25;2.10;;;;;;;4.41;100.00;98165.81;5011210;28;20050;-67
2022/05/30 00:52:45;;;;;;;3.17;1.95;;;;;;;4.41;100.00;98180.03;5012662;28;20394;-67
2022/05/30 00:55:14;;;;;;;7.40;2.08;;;;;;;4.36;100.00;98182.41;5006508;28;20030;-68
2022/05/30 00:57:42;;;;;;;3.75;2.38;;;;;;;4.41;100.00;98185.38;5006411;28;20029;-68
2022/05/30 01:00:17;;;;;;;7.17;2.10;;;;;;;4.55;100.00;98179.22;5014143;28;20041;-67
2022/05/30 01:02:43;;;;;;;3.78;2.33;;;;;;;4.42;100.00;98176.31;5023247;28;20037;-68
2022/05/30 01:07:58;;;;;;;5.97;2.60;;;;;;;4.36;100.00;98167.16;5029782;28;20029;-68
2022/05/30 01:10:24;;;;;;;2.88;1.92;;;;;;;4.53;100.00;98167.88;5028076;28;20046;-67
2022/05/30 01:12:55;;;;;;;3.85;2.10;;;;;;;4.51;100.00;98167.22;5026403;28;20056;-68
2022/05/30 01:15:28;;;;;;;5.43;2.47;;;;;;;4.58;100.00;98170.84;5030543;28;20108;-68
2022/05/30 01:18:01;;;;;;;2.75;2.05;;;;;;;4.56;100.00;98166.69;5030444;28;20434;-68
2022/05/30 01:20:45;;;;;;;3.47;1.90;;;;;;;4.65;100.00;98164.75;5032139;28;20037;-68
2022/05/30 01:23:21;;;;;;;4.38;2.25;;;;;;;4.59;100.00;98158.28;5026175;28;20246;-68
2022/05/30 01:26:05;;;;;;;6.95;1.80;;;;;;;4.53;100.00;98158.97;5028719;28;20053;-68
2022/05/30 01:28:43;;;;;;;4.10;1.90;;;;;;;4.43;100.00;98159.25;5026636;28;20319;-68
2022/05/30 01:31:10;;;;;;;2.33;1.77;;;;;;;4.27;100.00;98157.53;5028199;28;20026;-67
2022/05/30 01:33:36;;;;;;;3.33;1.80;;;;;;;4.24;100.00;98157.03;5026245;28;20033;-68
2022/05/30 01:36:01;;;;;;;5.68;1.90;;;;;;;4.22;100.00;98148.34;5030248;28;20117;-68
2022/05/30 01:38:28;;;;;;;3.38;2.25;;;;;;;4.25;100.00;98151.53;5027966;28;20056;-68
2022/05/30 01:40:54;;;;;;;3.58;2.00;;;;;;;4.23;100.00;98145.50;5030705;28;20060;-68
2022/05/30 01:43:20;;;;;;;3.13;1.70;;;;;;;4.04;100.00;98141.47;5028821;28;20026;-68
2022/05/30 01:45:45;;;;;;;4.00;1.92;;;;;;;4.00;100.00;98147.34;5030697;28;20121;-68
2022/05/30 01:48:10;;;;;;;4.13;2.22;;;;;;;3.86;100.00;98127.53;5028058;28;20089;-68
2022/05/30 01:50:35;;;;;;;5.82;2.55;;;;;;;3.92;100.00;98142.88;5034998;28;20014;-68
2022/05/30 01:53:02;;;;;;;4.15;2.80;;;;;;;3.85;100.00;98145.44;5031443;28;20092;-68
2022/05/30 01:55:27;;;;;;;3.75;2.72;;;;;;;3.87;100.00;98146.06;5033108;28;20026;-68
2022/05/30 01:57:52;;;;;;;5.53;2.50;;;;;;;3.93;100.00;98140.03;5022466;28;20102;-68
2022/05/30 02:00:18;;;;;;;8.30;2.72;;;;;;;4.02;100.00;98138.13;5023089;28;20074;-68
2022/05/30 02:02:43;;;;;;;5.72;2.60;;;;;;;3.82;100.00;98112.84;5025583;28;20029;-68
2022/05/30 02:05:10;;;;;;;4.22;2.40;;;;;;;3.96;100.00;98122.78;5030062;28;20030;-69
2022/05/30 02:07:35;;;;;;;6.47;2.25;;;;;;;3.91;100.00;98112.63;5028717;28;20017;-68
2022/05/30 02:10:00;;;;;;;5.38;2.30;;;;;;;3.98;100.00;98126.09;5023048;28;20036;-67
2022/05/30 02:12:26;;;;;;;3.25;2.08;;;;;;;3.86;100.00;98130.22;5029329;28;20034;-68
2022/05/30 02:14:51;;;;;;;3.10;2.03;;;;;;;3.99;100.00;98127.78;5026357;28;20053;-68
2022/05/30 02:17:17;;;;;;;8.48;1.90;;;;;;;3.89;100.00;98100.41;5028839;28;20106;-68
2022/05/30 02:19:44;;;;;;;6.20;1.83;;;;;;;3.89;100.00;98119.16;5032904;28;20038;-68
2022/05/30 02:22:13;;;;;;;3.00;1.88;;;;;;;3.85;100.00;98110.66;5032179;28;20101;-68
2022/05/30 02:24:39;;;;;;;5.70;2.03;;;;;;;3.79;100.00;98102.50;5026634;28;20029;-68
2022/05/30 02:27:06;;;;;;;2.72;1.63;;;;;;;3.79;100.00;98105.16;5023710;28;20153;-68
2022/05/30 02:29:31;;;;;;;4.13;2.42;;;;;;;3.70;100.00;98102.56;5028676;28;20025;-69
2022/05/30 02:31:57;;;;;;;6.85;2.40;;;;;;;3.63;100.00;98103.44;5028328;28;20042;-68
2022/05/30 02:37:06;;;;;;;4.93;2.10;;;;;;;3.68;100.00;98103.75;5026487;28;20162;-67
2022/05/30 02:39:31;;;;;;;5.88;2.90;;;;;;;3.66;100.00;98101.22;5010010;28;20495;-67
2022/05/30 02:41:57;;;;;;;5.88;2.90;;;;;;;3.60;100.00;98101.13;5013915;28;20428;-67
2022/05/30 02:44:24;;;;;;;4.93;2.60;;;;;;;3.65;100.00;98106.78;5008635;28;20037;-68
2022/05/30 02:46:53;;;;;;;4.30;2.42;;;;;;;3.58;100.00;98108.47;5022834;28;20030;-67
2022/05/30 02:49:19;;;;;;;3.07;1.93;;;;;;;3.58;100.00;98114.66;5026673;28;20030;-67
2022/05/30 02:51:45;;;;;;;6.47;2.65;;;;;;;3.42;100.00;98094.19;5033153;28;20018;-67
2022/05/30 02:54:11;;;;;;;6.05;2.33;;;;;;;3.53;100.00;98100.97;5033810;28;20081;-70
2022/05/30 02:56:37;;;;;;;4.05;2.30;;;;;;;3.55;100.00;98120.34;5029789;28;20040;-68
2022/05/30 02:59:03;;;;;;;4.65;2.95;;;;;;;3.49;100.00;98121.06;5033757;28;20026;-70
2022/05/30 03:01:31;;;;;;;3.47;2.63;;;;;;;3.39;100.00;98129.28;5031192;28;20019;-70
2022/05/30 03:03:57;;;;;;;4.22;2.50;;;;;;;3.28;100.00;98125.16;5035025;28;20014;-70
2022/05/30 03:06:23;;;;;;;4.22;2.50;;;;;;;3.25;100.00;98130.88;5030709;28;20022;-69
2022/05/30 03:08:48;;;;;;;4.10;2.55;;;;;;;3.19;100.00;98131.53;5033204;28;20038;-68
2022/05/30 03:11:14;;;;;;;5.55;2.60;;;;;;;3.23;100.00;98129.38;5029716;28;20045;-68
2022/05/30 03:13:39;;;;;;;4.95;3.00;;;;;;;3.12;100.00;98119.91;5031119;28;20014;-68
2022/05/30 03:16:05;;;;;;;4.57;2.60;;;;;;;3.24;100.00;98131.84;5027947;28;20050;-68
2022/05/30 03:18:31;;;;;;;3.28;2.35;;;;;;;3.17;100.00;98114.00;5034674;28;20411;-68
2022/05/30 03:20:56;;;;;;;5.88;3.22;;;;;;;3.39;100.00;98136.50;5034679;28;20063;-68
2022/05/30 03:23:22;;;;;;;3.85;2.63;;;;;;;3.50;100.00;98141.44;5026152;28;20091;-69
2022/05/30 03:25:47;;;;;;;4.22;2.70;;;;;;;3.44;100.00;98124.25;5020638;28;20033;-70
2022/05/30 03:28:13;;;;;;;6.57;3.20;;;;;;;3.58;100.00;98143.25;5025392;28;20034;-70
2022/05/30 03:30:38;;;;;;;5.20;2.90;;;;;;;3.59;100.00;98143.09;5031509;28;20106;-69
2022/05/30 03:33:08;;;;;;;3.42;2.65;;;;;;;3.58;100.00;98151.28;5033291;28;20099;-69
2022/05/30 03:35:34;;;;;;;4.43;2.90;;;;;;;3.72;100.00;98153.19;5029312;28;20056;-70
2022/05/30 03:38:00;;;;;;;4.90;2.80;;;;;;;3.74;100.00;98160.03;5024606;28;20042;-70
2022/05/30 03:40:26;;;;;;;5.43;2.88;;;;;;;3.81;100.00;98170.03;5019664;28;20037;-70
2022/05/30 03:42:51;;;;;;;4.78;2.65;;;;;;;3.81;100.00;98170.03;5026904;28;20030;-69
2022/05/30 03:45:16;;;;;;;7.13;2.28;;;;;;;3.82;100.00;98163.69;5032539;28;20124;-70
2022/05/30 03:47:44;;;;;;;5.20;2.67;;;;;;;3.89;100.00;98170.00;5025919;28;20014;-70
2022/05/30 03:50:14;;;;;;;8.32;3.03;;;;;;;3.89;100.00;98175.34;5032545;28;20018;-67
2022/05/30 03:52:39;;;;;;;6.57;2.50;;;;;;;3.88;100.00;98179.03;5027059;28;20022;-69
2022/05/30 03:55:11;;;;;;;6.15;3.00;;;;;;;3.89;100.00;98178.84;5023505;28;20049;-69
2022/05/30 03:57:37;;;;;;;3.90;2.45;;;;;;;3.93;100.00;98179.34;5012310;28;20026;-70
2022/05/30 04:00:03;;;;;;;3.35;2.28;;;;;;;3.94;100.00;98175.66;5022903;28;20110;-69
2022/05/30 04:02:29;;;;;;;6.00;2.40;;;;;;;3.90;100.00;98168.97;5016839;28;20036;-72
2022/05/30 04:04:55;;;;;;;6.70;2.67;;;;;;;3.95;100.00;98170.09;5015195;28;20053;-74
2022/05/30 04:07:20;;;;;;;8.77;2.88;;;;;;;4.06;100.00;98181.41;5016106;28;20087;-73
2022/05/30 04:09:46;;;;;;;5.22;2.65;;;;;;;4.02;100.00;98170.25;5016375;28;20364;-74
2022/05/30 04:12:11;;;;;;;6.53;2.70;;;;;;;4.12;100.00;98184.25;5012912;28;20582;-74
2022/05/30 04:14:36;;;;;;;7.05;2.70;;;;;;;4.09;100.00;98178.41;5015882;28;20052;-73
2022/05/30 04:17:02;;;;;;;4.55;2.75;;;;;;;4.24;100.00;98194.53;5009621;28;20034;-73
2022/05/30 04:19:27;;;;;;;3.88;2.35;;;;;;;4.24;100.00;98183.81;5016789;28;20053;-74
2022/05/30 04:21:52;;;;;;;4.28;2.25;;;;;;;4.32;100.00;98187.28;5014557;28;20037;-73
2022/05/30 04:24:18;;;;;;;3.88;2.28;;;;;;;4.50;100.00;98199.53;5009161;28;20040;-72
2022/05/30 04:26:44;;;;;;;4.15;2.10;;;;;;;4.40;100.00;98199.75;5013348;28;20486;-73
2022/05/30 04:29:09;;;;;;;5.68;2.13;;;;;;;4.34;100.00;98189.78;5012760;28;20091;-77
2022/05/30 04:31:35;;;;;;;7.78;2.58;;;;;;;4.25;100.00;98180.16;5013476;28;20041;-74
2022/05/30 04:34:00;;;;;;;6.03;2.72;;;;;;;4.45;100.00;98202.72;5012649;28;20041;-75
2022/05/30 04:36:30;;;;;;;4.13;2.38;;;;;;;4.54;100.00;98201.69;5013039;28;20026;-73
2022/05/30 04:38:55;;;;;;;8.20;2.17;;;;;;;4.52;100.00;98182.25;5013715;28;20068;-73
2022/05/30 04:41:20;;;;;;;5.15;2.45;;;;;;;4.56;100.00;98180.06;5011371;28;20450;-74
2022/05/30 04:43:46;;;;;;;4.20;2.78;;;;;;;4.59;100.00;98175.19;5012944;28;20026;-73
2022/05/30 04:46:16;;;;;;;6.70;2.90;;;;;;;4.79;100.00;98209.50;5014490;28;20104;-73
2022/05/30 04:48:43;;;;;;;3.90;2.25;;;;;;;4.89;100.00;98194.00;5012888;28;20111;-73
2022/05/30 04:51:10;;;;;;;5.90;2.65;;;;;;;5.04;100.00;98192.16;5012349;28;20422;-74
2022/05/30 04:53:36;;;;;;;7.38;2.65;;;;;;;5.30;100.00;98201.63;5011368;28;20053;-74
2022/05/30 04:56:02;;;;;;;3.33;2.33;;;;;;;5.47;100.00;98205.78;5008173;28;20030;-74
2022/05/30 04:58:32;;;;;;;4.22;2.30;;;;;;;5.67;100.00;98213.28;4998359;28;20045;-68
2022/05/30 05:01:03;;;;;;;4.80;2.20;;;;;;;5.83;100.00;98199.63;5011417;28;20113;-72
2022/05/30 05:03:30;;;;;;;3.75;2.25;;;;;;;6.08;100.00;98204.72;5006856;28;20091;-70
2022/05/30 05:06:02;;;;;;;4.15;2.53;;;;;;;6.24;100.00;98206.34;5012389;28;20053;-69
2022/05/30 05:08:36;;;;;;;6.13;2.10;;;;;;;6.44;100.00;98199.31;5000663;28;20537;-69
2022/05/30 05:11:17;;;;;;;4.68;1.88;;;;;;;6.56;100.00;98194.25;5011259;28;20033;-71
2022/05/30 05:13:43;;;;;;;3.47;1.85;;;;;;;6.72;100.00;98193.97;5008288;28;20091;-77
2022/05/30 05:16:08;;;;;;;5.38;2.38;;;;;;;7.02;100.00;98215.31;5028102;28;20021;-76
2022/05/30 05:18:34;;;;;;;10.45;2.10;;;;;;;7.12;100.00;98196.16;5012660;28;20017;-76
2022/05/30 05:20:59;;;;;;;3.83;2.10;;;;;;;7.33;100.00;98192.56;5011729;28;20025;-78
2022/05/30 05:23:24;;;;;;;3.63;1.95;;;;;;;7.55;100.00;98188.78;5012206;28;20506;-75
2022/05/30 05:25:50;;;;;;;5.90;1.67;;;;;;;7.77;100.00;98199.44;5012652;28;20062;-76
2022/05/30 05:28:15;;;;;;;4.10;2.00;;;;;;;7.88;100.00;98180.81;5015082;28;20030;-76
2022/05/30 05:30:42;;;;;;;2.58;1.67;;;;;;;7.88;100.00;98180.81;5025033;28;20036;-75
2022/05/30 05:33:09;;;;;;;4.10;1.95;;;;;;;8.14;100.00;98190.03;5020909;28;20029;-75
2022/05/30 05:35:34;;;;;;;3.83;1.65;;;;;;;8.33;100.00;98183.03;5010365;28;20095;-75
2022/05/30 05:38:00;;;;;;;5.80;2.08;;;;;;;8.56;100.00;98198.88;5011056;28;20120;-75
2022/05/30 05:40:28;;;;;;;3.90;1.77;;;;;;;8.77;100.00;98195.16;5007721;28;20026;-73
2022/05/30 05:42:53;;;;;;;4.45;2.05;;;;;;;9.08;100.00;98208.03;5000019;28;20028;-73
2022/05/30 05:45:19;;;;;;;5.28;2.10;;;;;;;9.46;100.00;98210.06;5012145;28;20468;-74
2022/05/30 05:47:44;;;;;;;5.80;1.77;;;;;;;9.60;100.00;98200.06;5012714;28;20110;-72
2022/05/30 05:50:10;;;;;;;4.50;1.70;;;;;;;9.71;100.00;98206.69;5012945;28;20033;-71
2022/05/30 05:52:36;;;;;;;4.78;1.83;;;;;;;9.97;100.00;98206.56;5036463;28;20014;-72
2022/05/30 05:55:02;;;;;;;4.82;1.88;;;;;;;9.97;100.00;98211.97;5036020;28;20105;-72
2022/05/30 05:57:27;;;;;;;4.38;1.88;;;;;;;10.21;100.00;98218.53;5019928;28;20033;-69
2022/05/30 05:59:53;;;;;;;4.13;1.60;;;;;;;10.38;100.00;98215.38;5029225;28;20013;-73
2022/05/30 06:02:18;;;;;;;5.60;1.83;;;;;;;10.36;100.00;98222.88;5036133;28;20014;-70
2022/05/30 06:04:44;;;;;;;2.78;1.67;;;;;;;10.46;100.00;98220.53;5030636;28;20018;-72
2022/05/30 06:07:10;;;;;;;3.53;1.77;;;;;;;10.75;100.00;98211.78;5015903;28;20017;-73
2022/05/30 06:09:37;;;;;;;3.25;1.63;;;;;;;11.20;100.00;98216.22;5013121;28;20025;-73
2022/05/30 06:12:03;;;;;;;3.45;1.75;;;;;;;11.24;100.00;98222.03;5012964;28;20025;-69
2022/05/30 06:14:28;;;;;;;3.53;1.90;;;;;;;11.42;100.00;98219.34;5011398;28;20107;-73
2022/05/30 06:16:54;;;;;;;2.53;1.40;;;;;;;11.71;100.00;98198.00;5007784;28;20090;-74
2022/05/30 06:19:20;;;;;;;5.93;1.85;;;;;;;11.93;100.00;98225.53;5010336;28;20022;-75
2022/05/30 06:21:45;;;;;;;3.50;1.90;;;;;;;12.07;100.00;98216.19;5011103;28;20033;-73
2022/05/30 06:24:12;;;;;;;2.42;1.63;;;;;;;12.24;100.00;98219.13;5013612;28;20072;-73
2022/05/30 06:26:37;;;;;;;3.85;1.98;;;;;;;12.56;100.00;98225.16;5008986;28;20099;-73
2022/05/30 06:29:03;;;;;;;7.18;1.88;;;;;;;12.78;99.57;98222.72;5013129;28;20530;-74
2022/05/30 06:31:30;;;;;;;3.28;1.90;;;;;;;12.82;96.47;98215.78;5011839;28;20080;-73
2022/05/30 06:33:58;;;;;;;3.22;1.98;;;;;;;13.06;94.92;98222.09;5006717;28;20145;-74
2022/05/30 06:36:25;;;;;;;2.72;1.80;;;;;;;13.69;92.55;98227.94;5009127;28;20025;-74
2022/05/30 06:38:52;;;;;;;3.58;1.75;;;;;;;14.00;88.99;98219.38;5005770;28;20387;-74
2022/05/30 06:41:26;;;;;;;5.30;1.90;;;;;;;13.78;87.57;98232.78;5005604;28;20434;-75
2022/05/30 06:43:56;;;;;;;2.60;1.45;;;;;;;14.22;81.04;98214.09;5003805;28;20026;-75
2022/05/30 06:46:22;;;;;;;4.85;2.70;;;;;;;15.03;78.40;98235.78;5009072;28;20032;-74
2022/05/30 06:48:48;;;;;;;2.65;1.55;;;;;;;15.80;72.13;98223.41;5012679;28;20017;-74
2022/05/30 06:51:16;;;;;;;5.05;2.00;;;;;;;16.10;65.21;98216.69;5013962;28;20116;-74
2022/05/30 06:53:43;;;;;;;2.80;1.80;;;;;;;17.36;58.76;98222.94;5015548;28;20487;-73
2022/05/30 06:56:23;;;;;;;5.32;1.83;;;;;;;18.95;55.81;98222.63;5013429;28;20026;-75
2022/05/30 06:58:52;;;;;;;4.43;2.00;;;;;;;19.38;49.63;98217.69;5012877;28;20460;-73
2022/05/30 07:01:21;;;;;;;5.70;1.63;;;;;;;21.95;45.55;98195.97;5011858;28;20034;-74
2022/05/30 07:03:47;;;;;;;3.25;1.60;;;;;;;21.91;43.18;98205.94;5011143;28;20053;-74
2022/05/30 07:06:19;;;;;;;3.35;1.50;;;;;;;22.37;41.71;98208.16;5012675;28;20472;-74
2022/05/30 07:08:46;;;;;;;4.68;1.60;;;;;;;22.95;41.70;98224.47;5006225;28;20491;-74
2022/05/30 07:11:13;;;;;;;4.03;1.80;;;;;;;24.33;39.78;98221.28;5010883;28;20038;-72
2022/05/30 07:13:39;;;;;;;6.10;1.50;;;;;;;25.02;37.52;98223.13;5012044;28;20444;-72
2022/05/30 07:16:05;;;;;;;4.55;1.42;;;;;;;25.48;36.94;98227.59;5011842;28;20113;-72
2022/05/30 07:18:30;;;;;;;1.10;0.98;;;;;;;26.85;35.41;98223.00;5004474;28;20122;-72
2022/05/30 07:21:01;;;;;;;4.97;1.55;;;;;;;24.99;35.60;98230.09;5009178;28;20493;-74
2022/05/30 07:23:27;;;;;;;1.70;1.38;;;;;;;23.89;37.36;98235.69;5002902;28;20035;-73
2022/05/30 07:26:01;;;;;;;2.55;1.10;;;;;;;25.64;34.52;98222.50;5007295;28;20038;-73
2022/05/30 07:28:30;;;;;;;3.95;1.40;;;;;;;25.36;35.01;98222.63;5006143;28;20487;-72
2022/05/30 07:31:05;;;;;;;3.78;1.30;;;;;;;27.27;32.91;98222.53;5009596;28;20026;-75
2022/05/30 07:33:31;;;;;;;7.07;1.63;;;;;;;26.26;33.93;98230.00;5001553;28;20030;-74
2022/05/30 07:35:57;;;;;;;2.70;1.40;;;;;;;26.37;34.68;98223.84;5014652;28;20022;-72
2022/05/30 07:38:23;;;;;;;2.28;1.38;;;;;;;24.31;35.37;98214.41;5013479;28;20022;-74
2022/05/30 07:40:48;;;;;;;2.60;1.30;;;;;;;24.13;37.28;98230.81;5010288;28;20045;-74
2022/05/30 07:43:14;;;;;;;5.60;1.52;;;;;;;25.73;33.95;98218.63;5014557;28;20026;-74
2022/05/30 07:45:40;;;;;;;3.42;1.60;;;;;;;26.16;33.39;98228.31;5009791;28;20089;-75
2022/05/30 07:48:05;;;;;;;2.10;1.30;;;;;;;27.02;31.66;98230.53;5012661;28;20021;-74
2022/05/30 07:50:31;;;;;;;3.58;1.30;;;;;;;27.28;31.95;98227.78;5012395;28;20415;-74
2022/05/30 07:52:56;;;;;;;2.78;1.33;;;;;;;26.32;32.11;98207.34;5015347;28;20018;-74
2022/05/30 07:55:21;;;;;;;5.00;1.58;;;;;;;26.14;32.88;98225.88;5008351;28;20052;-73
2022/05/30 07:57:53;;;;;;;4.30;1.50;;;;;;;26.39;32.37;98231.84;5012064;28;20030;-76
2022/05/30 08:00:21;;;;;;;4.13;1.55;;;;;;;27.10;32.53;98220.56;5011073;28;20034;-76
2022/05/30 08:02:46;;;;;;;4.93;1.52;;;;;;;28.50;31.62;98227.47;5014963;28;20060;-74
2022/05/30 08:05:13;;;;;;;2.33;1.35;;;;;;;28.49;30.25;98223.06;5015194;28;20022;-74
2022/05/30 08:07:39;;;;;;;3.75;1.52;;;;;;;28.60;29.74;98224.28;5012632;28;20029;-74
2022/05/30 08:10:06;;;;;;;4.07;1.45;;;;;;;28.63;29.91;98218.03;5014645;28;20029;-73
2022/05/30 08:12:32;;;;;;;3.33;1.05;;;;;;;28.54;30.48;98224.84;5010571;28;20038;-74
2022/05/30 08:14:58;;;;;;;3.13;1.05;;;;;;;29.75;28.15;98225.06;5014558;28;20026;-74
2022/05/30 08:17:24;;;;;;;3.05;1.02;;;;;;;29.87;27.85;98200.81;5025243;28;20025;-74
2022/05/30 08:19:50;;;;;;;2.30;1.00;;;;;;;29.53;26.97;98209.50;5013662;28;20063;-73
2022/05/30 08:22:15;;;;;;;2.28;0.90;;;;;;;29.39;27.49;98207.81;5010523;28;20029;-75
2022/05/30 08:24:51;;;;;;;3.05;1.10;;;;;;;29.28;26.62;98217.78;5009910;28;20037;-73
2022/05/30 08:27:16;;;;;;;2.80;1.17;;;;;;;30.43;26.70;98205.88;5008786;28;20429;-74
2022/05/30 08:29:42;;;;;;;2.25;0.88;;;;;;;32.16;24.98;98214.53;5016476;28;20056;-73
2022/05/30 08:32:08;;;;;;;2.60;0.88;;;;;;;31.77;24.74;98203.88;5011708;28;20029;-70
2022/05/30 08:34:35;;;;;;;3.45;1.30;;;;;;;30.50;26.34;98205.31;5004340;28;20053;-71
2022/05/30 08:37:01;;;;;;;3.38;1.00;;;;;;;30.86;25.67;98203.63;5013539;28;20402;-70
2022/05/30 08:42:11;;;;;;;1.92;0.85;;;;;;;30.09;26.81;98213.50;5011541;28;20051;-74
2022/05/30 08:44:36;;;;;;;1.75;0.80;;;;;;;29.24;26.51;98206.50;5013449;28;20018;-75
2022/05/30 08:47:23;;;;;;;1.73;0.80;;;;;;;29.35;28.51;98209.69;5012728;28;20041;-74
2022/05/30 08:49:52;;;;;;;1.70;0.90;;;;;;;31.15;25.77;98203.34;5012749;28;20040;-73
2022/05/30 08:52:36;;;;;;;2.72;0.80;;;;;;;31.53;25.66;98202.03;5010075;28;20051;-74
2022/05/30 08:55:14;;;;;;;2.80;1.30;;;;;;;31.42;24.64;98203.72;5165464;23;20525;-69
2022/05/30 08:57:57;;;;;;;2.53;0.90;;;;;;;31.38;25.83;98205.59;5031893;28;20022;-71
2022/05/30 09:00:30;;;;;;;3.55;1.10;;;;;;;32.24;24.61;98203.13;5028483;28;20026;-70
2022/05/30 09:03:15;;;;;;;2.17;1.00;;;;;;;30.94;25.24;98202.69;5026832;28;20052;-70
2022/05/30 09:05:49;;;;;;;5.82;1.15;;;;;;;31.28;25.27;98192.91;5024301;28;20645;-73
2022/05/30 09:08:24;;;;;;;4.10;1.20;;;;;;;29.58;25.88;98192.56;5023597;28;20092;-72
2022/05/30 09:10:57;;;;;;;3.83;0.98;;;;;;;30.93;25.66;98199.09;5023652;28;20585;-72
2022/05/30 09:13:38;;;;;;;5.93;1.05;;;;;;;31.22;25.41;98197.13;5014257;28;20101;-70
2022/05/30 09:16:06;;;;;;;3.15;1.05;;;;;;;30.34;26.40;98199.63;5024000;28;20084;-71
2022/05/30 09:18:47;;;;;;;2.13;1.00;;;;;;;32.69;24.36;98204.63;5013658;28;20037;-72
2022/05/30 09:21:14;;;;;;;1.83;1.00;;;;;;;32.25;25.47;98201.13;5003354;28;20044;-71
2022/05/30 09:23:40;;;;;;;2.58;1.23;;;;;;;28.73;28.14;98193.78;5009753;28;20508;-64
2022/05/30 09:26:11;;;;;;;1.83;1.00;;;;;;;25.86;30.98;98200.31;5021621;28;20063;-68
2022/05/30 09:28:41;;;;;;;3.85;1.30;;;;;;;27.14;29.82;98190.16;5014612;28;20025;-68
2022/05/30 09:31:36;;;;;;;1.27;0.90;;;;;;;29.53;27.13;98192.78;5013298;28;20094;-68
2022/05/30 09:34:51;;;;;;;2.28;1.00;;;;;;;30.92;25.15;98202.25;5011888;28;20369;-68
2022/05/30 09:37:29;;;;;;;2.15;1.02;;;;;;;32.62;23.14;98200.84;5004800;28;20087;-68
2022/05/30 09:39:54;;;;;;;3.35;0.90;;;;;;;33.12;22.87;98202.03;5003523;28;20049;-68
2022/05/30 09:42:29;;;;;;;1.88;0.80;;;;;;;32.77;21.57;98200.00;5006094;28;20492;-67
2022/05/30 09:45:08;;;;;;;4.97;0.90;;;;;;;33.81;20.96;98194.59;5006540;28;20032;-65
2022/05/30 09:47:35;;;;;;;1.90;0.70;;;;;;;34.13;19.98;98197.19;5006936;28;20128;-65
2022/05/30 09:50:14;;;;;;;2.45;0.80;;;;;;;34.45;20.88;98188.47;5014539;28;20110;-69
2022/05/30 09:52:41;;;;;;;4.57;1.10;;;;;;;32.49;23.58;98186.19;5004080;28;20419;-67
2022/05/30 09:55:46;;;;;;;2.63;1.00;;;;;;;28.54;27.59;98202.56;5011475;28;20440;-66
2022/05/30 09:58:11;;;;;;;3.05;0.90;;;;;;;27.10;28.62;98209.44;5011611;28;20037;-66
2022/05/30 10:00:55;;;;;;;2.08;0.95;;;;;;;26.37;27.49;98200.84;5009772;28;20116;-66
2022/05/30 10:03:37;;;;;;;2.58;0.85;;;;;;;24.96;29.30;98214.13;5020430;28;20501;-66
2022/05/30 10:06:12;;;;;;;2.33;1.02;;;;;;;23.26;32.51;98215.75;5009341;28;20062;-66
2022/05/30 10:08:37;;;;;;;3.08;0.90;;;;;;;22.00;34.75;98193.16;5003363;28;20021;-66
2022/05/30 10:11:03;;;;;;;2.53;1.08;;;;;;;21.57;35.41;98212.34;5002645;28;20036;-66
2022/05/30 10:13:36;;;;;;;3.00;1.00;;;;;;;21.18;35.95;98204.13;4997826;28;20041;-71
2022/05/30 10:16:07;;;;;;;2.50;1.05;;;;;;;20.86;36.18;98210.13;5000161;28;20022;-64
2022/05/30 10:18:36;;;;;;;2.13;1.17;;;;;;;20.49;36.39;98205.91;5010817;28;20026;-63
2022/05/30 10:21:22;;;;;;;6.25;1.20;;;;;;;19.80;37.44;98208.34;5001404;28;20120;-63
2022/05/30 10:30:23;;;;;;;3.95;1.15;;;;;;;20.00;37.84;98207.47;5016103;28;20041;-64
2022/05/30 10:32:57;;;;;;;3.95;1.20;;;;;;;23.13;33.11;98188.91;5009303;28;20469;-64
2022/05/30 10:35:39;;;;;;;3.28;1.05;;;;;;;26.78;29.19;98183.81;5010767;28;20478;-64
2022/05/30 10:38:27;;;;;;;2.38;0.82;;;;;;;29.69;26.45;98197.41;5012676;28;20164;-64
2022/05/30 10:41:18;;;;;;;3.03;1.07;;;;;;;30.44;25.59;98209.47;5012649;28;20029;-64
2022/05/30 10:43:49;;;;;;;2.38;0.93;;;;;;;29.02;26.40;98206.81;5014137;28;20391;-64
2022/05/30 10:46:21;;;;;;;1.65;0.93;;;;;;;30.35;24.63;98202.03;5008931;28;20076;-64
2022/05/30 10:49:11;;;;;;;2.30;1.00;;;;;;;30.42;24.22;98201.47;5032663;28;20246;-64
2022/05/30 10:51:49;;;;;;;2.35;0.90;;;;;;;32.36;23.98;98205.03;5032787;28;20048;-64
2022/05/30 10:54:29;;;;;;;2.35;1.02;;;;;;;30.46;24.15;98196.78;5019596;28;20030;-65
2022/05/30 10:57:13;;;;;;;2.00;0.88;;;;;;;30.18;25.00;98204.22;5013048;28;20029;-64
2022/05/30 10:59:49;;;;;;;1.67;0.90;;;;;;;27.18;26.45;98214.22;5017078;28;20017;-64
2022/05/30 11:02:17;;;;;;;4.47;1.30;;;;;;;26.59;28.64;98205.47;5016563;28;20022;-64
2022/05/30 11:04:55;;;;;;;6.13;1.00;;;;;;;24.88;29.96;98212.91;5014729;28;20104;-63
2022/05/30 11:07:36;;;;;;;2.72;0.88;;;;;;;23.53;31.20;98212.28;5016507;28;20034;-64
2022/05/30 11:10:12;;;;;;;3.28;1.30;;;;;;;22.67;32.53;98222.69;5014283;28;20387;-64
2022/05/30 11:12:41;;;;;;;2.92;1.17;;;;;;;22.36;34.19;98227.78;5010000;28;20034;-65
2022/05/30 11:15:31;;;;;;;4.72;0.98;;;;;;;22.05;33.84;98201.34;5023190;28;20390;-63
2022/05/30 11:18:11;;;;;;;2.05;0.80;;;;;;;22.14;34.80;98225.50;5033030;28;20071;-63
2022/05/30 11:20:44;;;;;;;;;;;;;;;21.94;35.27;98221.06;5016440;28;20032;-63
2022/05/30 11:23:11;;;;;;;2.20;0.90;;;;;;;21.55;35.23;98228.31;5016256;28;19913;-64
2022/05/30 11:26:14;;;;;;;2.22;0.90;;;;;;;20.99;33.78;98231.50;5018347;28;20029;-64
2022/05/30 11:29:32;;;;;;;3.40;0.80;;;;;;;21.57;33.19;98228.84;5020672;28;20498;-64
2022/05/30 11:32:03;;;;;;;1.73;1.00;;;;;;;25.53;29.37;98222.75;4996834;28;20045;-63
2022/05/30 11:34:58;;;;;;;1.50;0.77;;;;;;;28.67;25.40;98215.44;5008281;28;20076;-64
2022/05/30 11:37:42;;;;;;;1.50;0.68;;;;;;;30.17;23.39;98216.53;5012381;28;20085;-64
2022/05/30 11:40:27;;;;;;;2.45;0.70;;;;;;;31.49;21.87;98215.09;4996197;28;20053;-64
2022/05/30 11:43:12;;;;;;;1.73;0.80;;;;;;;31.19;21.24;98223.81;5010697;28;20025;-65
2022/05/30 11:45:44;;;;;;;1.30;0.70;;;;;;;31.26;21.49;98226.00;5028312;28;20033;-65
2022/05/30 11:48:20;;;;;;;1.42;0.77;;;;;;;31.19;21.75;98215.44;5035267;28;20053;-65
2022/05/30 11:51:06;;;;;;;1.27;0.70;;;;;;;31.64;22.26;98217.13;5034903;28;20068;-65
2022/05/30 11:53:58;;;;;;;2.03;0.77;;;;;;;31.39;21.71;98219.25;5017920;28;20072;-65
2022/05/30 11:56:24;;;;;;;1.23;0.57;;;;;;;33.11;19.28;98222.81;5012897;28;20058;-65
2022/05/30 11:59:12;;;;;;;2.78;0.90;;;;;;;31.73;19.88;98221.75;5012908;28;20084;-64
2022/05/30 12:01:43;;;;;;;4.35;0.93;;;;;;;29.88;21.63;98215.56;5015394;28;20549;-64